createdAt,value
2019-01-27T00:02:12.340Z,2.17
2019-01-27T00:04:41.040Z,2.97
2019-01-27T00:07:09.814Z,1.77
2019-01-27T00:09:38.641Z,1.80
2019-01-27T00:12:07.385Z,1.87
2019-01-27T00:14:36.805Z,1.50
2019-01-27T00:17:05.534Z,2.07
2019-01-27T00:19:34.342Z,2.07
2019-01-27T00:22:03.766Z,3.87
2019-01-27T00:24:32.476Z,3.03
2019-01-27T00:27:01.169Z,3.80
2019-01-27T00:29:29.881Z,2.70
2019-01-27T00:31:58.578Z,1.50
2019-01-27T00:34:27.349Z,1.90
2019-01-27T00:36:56.112Z,2.73
2019-01-27T00:39:24.809Z,1.43
2019-01-27T00:41:53.502Z,3.00
2019-01-27T00:44:22.349Z,1.57
2019-01-27T00:46:51.040Z,1.77
2019-01-27T00:49:19.769Z,2.23
2019-01-27T00:51:48.455Z,1.70
2019-01-27T00:54:17.187Z,1.53
2019-01-27T00:56:45.852Z,1.60
2019-01-27T00:59:14.617Z,1.30
2019-01-27T01:01:43.312Z,1.50
2019-01-27T01:04:12.065Z,1.30
2019-01-27T01:06:41.061Z,1.67
2019-01-27T01:09:30.618Z,3.10
2019-01-27T01:11:59.564Z,2.93
2019-01-27T01:14:28.329Z,2.83
2019-01-27T01:16:57.042Z,3.20
2019-01-27T01:19:25.722Z,2.30
2019-01-27T01:21:54.448Z,1.50
2019-01-27T01:24:23.133Z,2.50
2019-01-27T01:26:51.865Z,3.00
2019-01-27T01:29:20.562Z,2.07
2019-01-27T01:31:49.324Z,3.40
2019-01-27T01:34:18.098Z,1.63
2019-01-27T01:36:46.838Z,1.57
2019-01-27T01:39:15.589Z,1.67
2019-01-27T01:41:44.398Z,2.03
2019-01-27T01:44:13.140Z,2.50
2019-01-27T01:46:41.923Z,1.37
2019-01-27T01:49:10.609Z,2.33
2019-01-27T01:51:39.309Z,1.40
2019-01-27T01:54:08.058Z,1.47
2019-01-27T01:56:36.848Z,2.47
2019-01-27T01:59:05.770Z,1.23
2019-01-27T02:01:34.477Z,2.47
2019-01-27T02:04:03.398Z,1.77
2019-01-27T02:06:32.112Z,1.67
2019-01-27T02:09:00.902Z,1.43
2019-01-27T02:11:29.725Z,1.17
2019-01-27T02:13:58.442Z,1.27
2019-01-27T02:16:27.136Z,1.13
2019-01-27T02:18:55.848Z,1.30
2019-01-27T02:21:24.545Z,2.73
2019-01-27T02:23:53.244Z,1.37
2019-01-27T02:26:21.996Z,0.80
2019-01-27T02:28:50.806Z,0.83
2019-01-27T02:31:19.719Z,1.57
2019-01-27T02:33:48.569Z,1.10
2019-01-27T02:36:17.245Z,1.30
2019-01-27T02:38:46.030Z,0.83
2019-01-27T02:41:14.814Z,1.40
2019-01-27T02:43:43.599Z,0.80
2019-01-27T02:46:12.298Z,1.20
2019-01-27T02:48:41.060Z,1.60
2019-01-27T02:51:09.728Z,1.37
2019-01-27T02:53:38.430Z,0.83
2019-01-27T02:56:07.221Z,0.70
2019-01-27T02:58:36.085Z,0.67
2019-01-27T03:01:05.136Z,1.17
2019-01-27T03:03:33.941Z,0.73
2019-01-27T03:06:03.617Z,1.13
2019-01-27T03:08:32.449Z,0.77
2019-01-27T03:11:01.162Z,0.70
2019-01-27T03:13:29.849Z,1.77
2019-01-27T03:15:58.633Z,1.67
2019-01-27T03:18:27.310Z,0.70
2019-01-27T03:20:56.084Z,0.73
2019-01-27T03:23:24.839Z,1.00
2019-01-27T03:25:53.631Z,0.50
2019-01-27T03:28:22.383Z,0.70
2019-01-27T03:30:51.250Z,1.80
2019-01-27T03:33:20.069Z,1.30
2019-01-27T03:35:48.845Z,0.50
2019-01-27T03:38:17.576Z,3.23
2019-01-27T03:40:46.289Z,1.23
2019-01-27T03:43:15.100Z,0.70
2019-01-27T03:45:43.786Z,0.67
2019-01-27T03:48:12.638Z,0.67
2019-01-27T03:50:41.505Z,0.83
2019-01-27T03:53:10.260Z,2.53
2019-01-27T03:55:39.128Z,0.53
2019-01-27T03:58:07.948Z,2.10
2019-01-27T04:00:36.649Z,2.60
2019-01-27T04:03:05.549Z,0.60
2019-01-27T04:05:34.309Z,0.60
2019-01-27T04:08:03.410Z,1.53
2019-01-27T04:10:32.153Z,1.33
2019-01-27T04:13:00.957Z,0.60
2019-01-27T04:15:29.704Z,1.70
2019-01-27T04:17:58.561Z,1.70
2019-01-27T04:20:27.253Z,0.63
2019-01-27T04:22:56.101Z,0.73
2019-01-27T04:25:24.827Z,1.33
2019-01-27T04:27:53.654Z,0.87
2019-01-27T04:30:25.743Z,0.60
2019-01-27T04:32:54.536Z,0.60
2019-01-27T04:35:23.314Z,0.73
2019-01-27T04:37:52.025Z,0.47
2019-01-27T04:40:22.530Z,0.50
2019-01-27T04:42:51.372Z,0.60
2019-01-27T04:45:20.178Z,1.40
2019-01-27T04:47:48.853Z,0.40
2019-01-27T04:50:17.705Z,0.50
2019-01-27T04:52:46.552Z,0.50
2019-01-27T04:55:17.478Z,1.07
2019-01-27T04:57:46.315Z,0.50
2019-01-27T05:00:18.083Z,1.67
2019-01-27T05:02:46.877Z,2.33
2019-01-27T05:05:15.645Z,1.13
2019-01-27T05:07:44.355Z,1.07
2019-01-27T05:10:14.053Z,0.60
2019-01-27T05:12:42.745Z,1.67
2019-01-27T05:15:14.540Z,0.60
2019-01-27T05:17:43.264Z,1.93
2019-01-27T05:20:12.239Z,1.57
2019-01-27T05:22:41.048Z,1.47
2019-01-27T05:25:12.826Z,4.03
2019-01-27T05:27:41.621Z,2.97
2019-01-27T05:30:27.128Z,1.43
2019-01-27T05:32:55.944Z,0.90
2019-01-27T05:35:24.705Z,1.03
2019-01-27T05:37:53.400Z,1.83
2019-01-27T05:40:22.427Z,3.07
2019-01-27T05:42:51.209Z,3.03
2019-01-27T05:45:22.105Z,3.03
2019-01-27T05:47:50.987Z,2.10
2019-01-27T05:50:20.279Z,1.53
2019-01-27T05:52:49.049Z,1.70
2019-01-27T05:55:21.012Z,0.73
2019-01-27T05:57:49.793Z,2.17
2019-01-27T06:00:26.865Z,2.17
2019-01-27T06:02:55.576Z,0.50
2019-01-27T06:05:24.277Z,0.50
2019-01-27T06:07:53.086Z,1.07
2019-01-27T06:10:21.770Z,1.10
2019-01-27T06:12:50.553Z,0.63
2019-01-27T06:15:19.479Z,0.90
2019-01-27T06:17:48.514Z,0.80
2019-01-27T06:20:17.671Z,0.77
2019-01-27T06:22:46.524Z,2.83
2019-01-27T06:25:17.562Z,0.53
2019-01-27T06:27:46.305Z,1.30
2019-01-27T06:30:18.392Z,0.80
2019-01-27T06:32:47.166Z,0.47
2019-01-27T06:35:15.867Z,2.07
2019-01-27T06:37:44.733Z,0.53
2019-01-27T06:40:13.883Z,0.73
2019-01-27T06:42:42.660Z,1.70
2019-01-27T06:45:11.618Z,1.57
2019-01-27T06:47:40.405Z,1.63
2019-01-27T06:50:11.508Z,1.33
2019-01-27T06:52:40.393Z,1.00
2019-01-27T06:55:18.007Z,0.93
2019-01-27T06:57:46.884Z,1.40
2019-01-27T07:00:25.568Z,2.33
2019-01-27T07:02:54.334Z,1.43
2019-01-27T07:05:23.156Z,2.07
2019-01-27T07:07:51.841Z,1.73
2019-01-27T07:10:20.618Z,1.10
2019-01-27T07:12:49.331Z,0.90
2019-01-27T07:15:18.258Z,1.20
2019-01-27T07:17:46.953Z,1.40
2019-01-27T07:20:15.662Z,1.90
2019-01-27T07:22:44.358Z,2.57
2019-01-27T07:25:13.206Z,1.63
2019-01-27T07:27:41.957Z,1.90
2019-01-27T07:30:12.758Z,1.20
2019-01-27T07:32:41.597Z,1.03
2019-01-27T07:35:10.729Z,0.60
2019-01-27T07:37:39.508Z,1.17
2019-01-27T07:40:09.733Z,0.60
2019-01-27T07:42:38.440Z,0.70
2019-01-27T07:45:09.869Z,1.93
2019-01-27T07:47:38.665Z,1.83
2019-01-27T07:50:10.105Z,2.33
2019-01-27T07:52:38.890Z,1.47
2019-01-27T07:55:07.721Z,1.03
2019-01-27T07:57:36.462Z,0.67
2019-01-27T08:00:13.977Z,0.90
2019-01-27T08:02:42.824Z,3.20
2019-01-27T08:05:11.644Z,1.17
2019-01-27T08:07:40.513Z,0.93
2019-01-27T08:10:28.788Z,2.77
2019-01-27T08:13:16.843Z,1.67
2019-01-27T08:16:04.946Z,1.17
2019-01-27T08:18:53.076Z,0.93
2019-01-27T08:21:41.112Z,1.50
2019-01-27T08:24:29.153Z,5.43
2019-01-27T08:27:17.165Z,2.60
2019-01-27T08:33:19.989Z,2.23
2019-01-27T08:36:08.003Z,1.23
2019-01-27T08:38:56.120Z,4.33
2019-01-27T08:41:44.152Z,1.30
2019-01-27T08:44:32.282Z,1.63
2019-01-27T08:47:32.377Z,1.20
2019-01-27T08:50:29.798Z,2.67
2019-01-27T08:53:17.701Z,2.73
2019-01-27T08:56:05.745Z,1.00
2019-01-27T08:58:53.800Z,4.87
2019-01-27T09:01:41.832Z,3.77
2019-01-27T09:04:29.896Z,4.50
2019-01-27T09:07:17.931Z,3.17
2019-01-27T09:13:15.422Z,4.37
2019-01-27T09:15:56.726Z,3.10
2019-01-27T09:18:38.044Z,4.00
2019-01-27T09:27:10.392Z,4.37
2019-01-27T09:35:24.640Z,3.07
2019-01-27T09:38:07.964Z,2.00
2019-01-27T09:40:49.243Z,5.50
2019-01-27T09:43:30.304Z,3.43
2019-01-27T09:46:11.775Z,2.97
2019-01-27T09:51:46.606Z,4.37
2019-01-27T09:54:27.366Z,3.20
2019-01-27T09:57:08.902Z,5.37
2019-01-27T10:08:15.143Z,6.87
2019-01-27T10:10:56.436Z,4.10
2019-01-27T10:13:37.926Z,2.67
2019-01-27T10:16:20.940Z,6.00
2019-01-27T10:19:02.170Z,4.63
2019-01-27T10:21:41.357Z,3.50
2019-01-27T10:24:29.438Z,4.83
2019-01-27T10:27:17.462Z,6.00
2019-01-27T10:30:24.871Z,6.00
2019-01-27T10:33:12.938Z,5.90
2019-01-27T10:36:01.023Z,3.90
2019-01-27T10:38:49.075Z,4.97
2019-01-27T10:41:37.178Z,3.33
2019-01-27T10:47:27.919Z,5.17
2019-01-27T10:53:21.063Z,2.70
2019-01-27T11:02:12.307Z,2.67
2019-01-27T11:05:00.470Z,4.23
2019-01-27T11:07:48.580Z,1.70
2019-01-27T11:10:56.493Z,3.87
2019-01-27T11:13:37.774Z,5.27
2019-01-27T11:16:19.020Z,2.40
2019-01-27T11:18:59.566Z,4.03
2019-01-27T11:21:41.046Z,3.50
2019-01-27T11:24:22.468Z,2.27
2019-01-27T11:27:03.879Z,2.07
2019-01-27T11:29:42.996Z,1.57
2019-01-27T11:32:31.104Z,1.30
2019-01-27T11:35:19.205Z,2.43
2019-01-27T11:38:07.322Z,1.53
2019-01-27T11:40:55.410Z,1.63
2019-01-27T11:43:43.469Z,1.80
2019-01-27T11:46:31.623Z,2.77
2019-01-27T11:49:19.758Z,2.90
2019-01-27T11:52:07.984Z,2.00
2019-01-27T11:54:56.102Z,2.73
2019-01-27T11:57:44.204Z,3.37
2019-01-27T12:00:32.351Z,1.60
2019-01-27T12:03:40.341Z,1.63
2019-01-27T12:06:28.380Z,2.50
2019-01-27T12:09:16.430Z,3.40
2019-01-27T12:12:04.523Z,5.40
2019-01-27T12:14:49.175Z,3.17
2019-01-27T12:17:30.117Z,2.50
2019-01-27T12:20:11.415Z,3.67
2019-01-27T12:22:52.712Z,3.20
2019-01-27T12:28:27.326Z,2.53
2019-01-27T12:31:06.451Z,4.60
2019-01-27T12:33:47.419Z,4.67
2019-01-27T12:36:28.961Z,3.73
2019-01-27T12:39:10.114Z,3.37
2019-01-27T12:41:51.502Z,2.20
2019-01-27T12:44:32.011Z,3.87
2019-01-27T12:50:04.322Z,4.40
2019-01-27T12:52:45.515Z,2.50
2019-01-27T12:55:30.950Z,2.53
2019-01-27T12:58:12.392Z,2.57
2019-01-27T13:00:53.546Z,5.97
2019-01-27T13:03:34.810Z,3.40
2019-01-27T13:06:16.273Z,3.57
2019-01-27T13:08:57.526Z,5.67
2019-01-27T13:11:38.103Z,3.53
2019-01-27T13:14:19.221Z,5.03
2019-01-27T13:17:00.197Z,2.37
2019-01-27T13:19:40.662Z,3.43
2019-01-27T13:22:21.756Z,6.63
2019-01-27T13:25:02.681Z,6.30
2019-01-27T13:27:43.974Z,4.10
2019-01-27T13:30:24.945Z,3.90
2019-01-27T13:33:06.293Z,3.27
2019-01-27T13:35:47.482Z,5.33
2019-01-27T13:38:30.715Z,2.10
2019-01-27T13:41:12.050Z,3.03
2019-01-27T13:43:55.399Z,2.83
2019-01-27T13:46:36.602Z,2.30
2019-01-27T13:49:19.045Z,3.60
2019-01-27T13:52:00.426Z,2.77
2019-01-27T13:54:41.054Z,3.60
2019-01-27T13:57:23.362Z,3.10
2019-01-27T14:02:55.741Z,2.17
2019-01-27T14:05:36.971Z,3.80
2019-01-27T14:08:18.087Z,2.07
2019-01-27T14:10:59.309Z,3.83
2019-01-27T14:13:40.373Z,1.90
2019-01-27T14:16:20.810Z,4.03
2019-01-27T14:19:02.329Z,3.67
2019-01-27T14:21:43.437Z,6.23
2019-01-27T14:24:24.883Z,4.20
2019-01-27T14:27:06.389Z,3.03
2019-01-27T14:29:47.848Z,6.17
2019-01-27T14:32:29.125Z,5.40
2019-01-27T14:35:10.311Z,3.73
2019-01-27T14:37:51.621Z,4.63
2019-01-27T14:40:35.065Z,3.50
2019-01-27T14:43:15.620Z,5.13
2019-01-27T14:45:56.219Z,2.93
2019-01-27T14:48:37.521Z,4.70
2019-01-27T14:51:18.982Z,3.50
2019-01-27T14:54:00.054Z,4.40
2019-01-27T14:56:41.100Z,3.50
2019-01-27T14:59:22.162Z,3.60
2019-01-27T15:02:02.717Z,1.97
2019-01-27T15:04:44.031Z,1.20
2019-01-27T15:07:25.157Z,3.47
2019-01-27T15:12:49.173Z,5.67
2019-01-27T15:15:30.506Z,8.70
2019-01-27T15:23:47.965Z,3.87
2019-01-27T15:26:29.186Z,5.00
2019-01-27T15:34:41.049Z,6.03
2019-01-27T15:37:22.284Z,9.73
2019-01-27T15:40:03.726Z,11.43
2019-01-27T15:48:39.133Z,11.90
2019-01-27T15:54:04.216Z,13.93
2019-01-27T15:56:45.461Z,14.50
2019-01-27T16:02:09.934Z,10.63
2019-01-27T16:04:51.108Z,13.07
2019-01-27T16:07:35.475Z,14.97
2019-01-27T16:10:17.272Z,11.80
2019-01-27T16:12:58.407Z,9.77
2019-01-27T16:15:39.819Z,14.30
2019-01-27T16:18:21.232Z,15.77
2019-01-27T16:21:02.549Z,13.57
2019-01-27T16:23:43.901Z,17.27
2019-01-27T16:26:25.313Z,14.73
2019-01-27T16:29:05.877Z,20.70
2019-01-27T16:31:47.321Z,18.20
2019-01-27T16:34:28.409Z,13.77
2019-01-27T16:37:09.862Z,15.00
2019-01-27T16:42:44.565Z,17.43
2019-01-27T16:48:15.666Z,17.37
2019-01-27T16:56:40.597Z,15.73
2019-01-27T17:05:09.847Z,18.30
2019-01-27T17:07:50.919Z,10.23
2019-01-27T17:10:31.859Z,14.40
2019-01-27T17:13:13.227Z,11.10
2019-01-27T17:15:54.507Z,10.80
2019-01-27T17:18:35.768Z,11.13
2019-01-27T17:21:16.882Z,14.47
2019-01-27T17:23:58.257Z,14.20
2019-01-27T17:26:39.409Z,14.73
2019-01-27T17:29:20.859Z,14.87
2019-01-27T17:32:02.439Z,13.37
2019-01-27T17:34:43.672Z,16.57
2019-01-27T17:37:24.862Z,17.73
2019-01-27T17:40:06.248Z,17.53
2019-01-27T17:42:47.531Z,17.87
2019-01-27T17:45:28.899Z,18.63
2019-01-27T17:48:10.002Z,12.03
2019-01-27T17:50:51.345Z,20.77
2019-01-27T17:53:32.450Z,15.20
2019-01-27T17:56:11.678Z,19.27
2019-01-27T17:58:59.878Z,11.30
2019-01-27T18:01:47.972Z,15.67
2019-01-27T18:04:55.931Z,18.13
2019-01-27T18:07:44.072Z,11.97
2019-01-27T18:10:32.136Z,22.13
2019-01-27T18:13:20.411Z,13.87
2019-01-27T18:16:01.659Z,13.97
2019-01-27T18:18:42.197Z,19.40
2019-01-27T18:21:22.816Z,15.53
2019-01-27T18:24:03.559Z,17.70
2019-01-27T18:26:45.243Z,15.57
2019-01-27T18:29:26.406Z,14.13
2019-01-27T18:32:06.907Z,16.20
2019-01-27T18:37:35.656Z,17.83
2019-01-27T18:40:16.802Z,15.13
2019-01-27T18:42:58.335Z,17.67
2019-01-27T18:45:39.339Z,15.37
2019-01-27T18:48:20.581Z,14.17
2019-01-27T18:51:02.830Z,15.43
2019-01-27T18:53:45.184Z,20.53
2019-01-27T18:56:26.477Z,21.50
2019-01-27T18:59:07.810Z,15.97
2019-01-27T19:04:32.587Z,14.27
2019-01-27T19:07:13.967Z,17.87
2019-01-27T19:09:55.290Z,16.50
2019-01-27T19:12:36.138Z,13.90
2019-01-27T19:15:18.786Z,16.17
2019-01-27T19:18:00.008Z,19.57
2019-01-27T19:20:41.391Z,10.90
2019-01-27T19:23:21.948Z,17.07
2019-01-27T19:26:03.331Z,15.97
2019-01-27T19:28:44.767Z,10.17
2019-01-27T19:31:28.217Z,15.13
2019-01-27T19:34:09.186Z,11.63
2019-01-27T19:45:28.968Z,15.37
2019-01-27T19:48:10.115Z,13.83
2019-01-27T19:50:51.431Z,15.90
2019-01-27T19:53:32.758Z,19.77
2019-01-27T19:56:14.422Z,18.17
2019-01-27T20:01:42.847Z,15.53
2019-01-27T20:04:23.495Z,18.27
2019-01-27T20:07:06.010Z,15.00
2019-01-27T20:09:42.853Z,15.77
2019-01-27T20:18:58.890Z,11.67
2019-01-27T20:21:58.931Z,10.57
2019-01-27T20:24:56.829Z,14.33
2019-01-27T20:27:44.867Z,12.47
2019-01-27T20:30:33.081Z,10.13
2019-01-27T20:33:21.120Z,14.43
2019-01-27T20:36:00.298Z,11.30
2019-01-27T20:38:48.415Z,13.87
2019-01-27T20:41:36.496Z,16.03
2019-01-27T20:44:24.709Z,13.10
2019-01-27T20:47:12.949Z,14.23
2019-01-27T20:53:14.945Z,16.43
2019-01-27T20:56:22.938Z,18.43
2019-01-27T20:59:10.986Z,12.73
2019-01-27T21:05:12.969Z,21.97
2019-01-27T21:08:01.017Z,12.97
2019-01-27T21:10:49.093Z,15.90
2019-01-27T21:13:37.179Z,14.80
2019-01-27T21:16:17.911Z,14.77
2019-01-27T21:18:59.374Z,19.27
2019-01-27T21:21:40.641Z,13.87
2019-01-27T21:24:21.430Z,13.83
2019-01-27T21:27:06.513Z,13.27
2019-01-27T21:29:45.539Z,14.10
2019-01-27T21:32:26.118Z,17.77
2019-01-27T21:35:07.427Z,16.30
2019-01-27T21:37:48.002Z,16.60
2019-01-27T21:40:29.257Z,17.90
2019-01-27T21:43:10.439Z,15.70
2019-01-27T21:45:51.813Z,15.67
2019-01-27T21:48:32.918Z,13.33
2019-01-27T21:51:13.369Z,21.10
2019-01-27T21:53:54.649Z,16.17
2019-01-27T21:56:35.119Z,18.97
2019-01-27T21:59:16.203Z,18.37
2019-01-27T22:01:57.451Z,15.57
2019-01-27T22:04:38.798Z,17.03
2019-01-27T22:07:19.850Z,15.40
2019-01-27T22:10:00.359Z,14.10
2019-01-27T22:12:41.703Z,14.87
2019-01-27T22:15:22.977Z,11.77
2019-01-27T22:18:04.142Z,14.67
2019-01-27T22:20:45.451Z,15.03
2019-01-27T22:23:27.020Z,15.13
2019-01-27T22:26:10.833Z,14.33
2019-01-27T22:28:51.511Z,11.80
2019-01-27T22:31:32.887Z,12.73
2019-01-27T22:34:14.051Z,11.27
2019-01-27T22:36:42.794Z,10.27
2019-01-27T22:39:30.895Z,11.27
2019-01-27T22:42:18.958Z,10.13
2019-01-27T22:48:21.779Z,10.53
2019-01-27T22:51:09.848Z,9.53
2019-01-27T22:53:57.907Z,10.00
2019-01-27T22:56:46.023Z,10.57
2019-01-27T22:59:34.066Z,8.93
2019-01-27T23:02:22.195Z,7.37
2019-01-27T23:05:10.300Z,15.70
2019-01-27T23:07:58.346Z,7.43
2019-01-27T23:10:46.389Z,9.27
2019-01-27T23:13:34.542Z,10.03
2019-01-27T23:16:15.799Z,10.83
2019-01-27T23:18:57.038Z,10.93
2019-01-27T23:21:37.494Z,10.10
2019-01-27T23:24:18.753Z,6.90
2019-01-27T23:27:02.293Z,9.80
2019-01-27T23:29:43.539Z,8.33
2019-01-27T23:32:24.738Z,11.13
2019-01-27T23:35:04.790Z,11.50
2019-01-27T23:37:52.854Z,10.93
2019-01-27T23:40:40.988Z,12.87
2019-01-27T23:43:29.057Z,10.83
2019-01-27T23:46:17.113Z,10.20
2019-01-27T23:49:05.160Z,7.20
2019-01-27T23:51:53.226Z,12.40
2019-01-27T23:54:41.281Z,5.50
2019-01-27T23:57:29.358Z,8.63
